Portada
METAR-TAF:

METAR-TAF

Aeroports :

Illes Wake, Estats Units d'Amèrica

latitud: 19-17N, longitud: 166-39E, altitud: 4 m

Observació

L'informe es va fer fa 48 minuts, a les 06:55 UTC
Temperatura
Pressió

METAR: PWAK 310655Z AUTO M M M M M M RMK AO2 SLPNO RVRNO PNO CHINO RWY28 $

Hora: 19:43 (07:43 UTC)

Pronòstic

L'informe es va fer fa 56 minuts, a les 06:47 UTC
Pronòstic vàlid del 31 a les 06 UTC al 01 a les 12 UTC
Vent 9 kt del Est
Visibilitat: 0112 m
Núvols disperses a una alçada de 2500 ft

TAF: PWAK 310647Z 3106/0112 09009KT 9999 SCT025 QNH2999INS TX28/0102Z TN24/3116Z FOR MIL USE ONLY LIMITED METWATCH 3106 TIL 0112

Observacions i pronòstics meteorològics de més de 4000 aeroports (METAR i TAF).

Les estacions disponibles són els punts grocs i vermells al mapa.

Posi el ratolí al punt desitjat per veure el nom de l'estació.

Feu clic per veure les observacions i els pronòstics meteorològics.

Per canviar el mapa: feu clic els botons verds amb una creu de color negre per apropar; al botó verd amb un guió per allunyar la imatge; o en les fletxes verdes per a mapes adjacents.


METAR-TAF: